Time;durP1;ratioP1;P1;durP2;ratioP2;P2;SDS_P1;SDS_P2;PMS_P1;PMS_P2;Temp;Humidity;BMP_temperature;BMP_pressure;BME280_temperature;BME280_humidity;BME280_pressure;Samples;Min_cycle;Max_cycle;Signal;HPM_P1;HPM_P2
2022/08/12 00:43:27;;;;;;;7.47;4.75;;;19.20;99.90;;;;;;4987264;28;20050;-87
2022/08/12 00:48:39;;;;;;;9.02;4.88;;;19.10;99.90;;;;;;4988667;28;20054;-86
2022/08/12 00:51:06;;;;;;;9.02;4.88;;;19.10;99.90;;;;;;4988616;28;20054;-86
2022/08/12 00:53:32;;;;;;;10.27;5.28;;;19.10;99.90;;;;;;4987986;28;20628;-86
2022/08/12 00:55:58;;;;;;;12.07;4.97;;;19.10;99.90;;;;;;4987667;28;20446;-85
2022/08/12 00:58:27;;;;;;;8.68;5.40;;;19.00;99.90;;;;;;4989083;28;20048;-87
2022/08/12 01:00:59;;;;;;;9.15;4.95;;;19.00;99.90;;;;;;4987310;28;20038;-86
2022/08/12 01:03:25;;;;;;;7.95;5.15;;;19.00;99.90;;;;;;4988753;28;20065;-86
2022/08/12 01:11:27;;;;;;;7.60;5.18;;;18.90;99.90;;;;;;4989538;28;20047;-87
2022/08/12 01:13:55;;;;;;;8.55;5.22;;;18.80;99.90;;;;;;4984783;28;20038;-86
2022/08/12 01:16:21;;;;;;;7.47;5.20;;;18.80;99.90;;;;;;4972699;28;20112;-87
2022/08/12 01:18:48;;;;;;;8.27;5.30;;;18.80;99.90;;;;;;4987369;28;20092;-86
2022/08/12 01:21:26;;;;;;;9.40;5.40;;;18.70;99.90;;;;;;4987010;28;20042;-87
2022/08/12 01:24:22;;;;;;;7.18;5.22;;;18.70;99.90;;;;;;4970855;28;20065;-88
2022/08/12 01:26:50;;;;;;;8.57;5.55;;;18.70;99.90;;;;;;4985755;28;20046;-87
2022/08/12 01:29:22;;;;;;;9.07;5.47;;;18.60;99.90;;;;;;4988927;28;20050;-85
2022/08/12 01:31:50;;;;;;;9.02;5.43;;;18.60;99.90;;;;;;4984484;28;20053;-86
2022/08/12 01:34:22;;;;;;;8.93;5.80;;;18.60;99.90;;;;;;4986472;28;20046;-86
2022/08/12 01:36:59;;;;;;;10.05;5.70;;;18.60;99.90;;;;;;4985587;28;20054;-85
2022/08/12 01:39:29;;;;;;;8.57;5.78;;;18.50;99.90;;;;;;4987826;28;20109;-86
2022/08/12 01:42:02;;;;;;;8.67;5.60;;;18.50;99.90;;;;;;4987512;28;20133;-86
2022/08/12 01:44:30;;;;;;;9.30;5.47;;;18.50;99.90;;;;;;4986804;28;20046;-88
2022/08/12 01:47:24;;;;;;;8.32;5.43;;;18.50;99.90;;;;;;4988966;28;20062;-87
2022/08/12 01:49:49;;;;;;;10.85;5.93;;;18.50;99.90;;;;;;4984668;28;20116;-86
2022/08/12 01:52:33;;;;;;;8.88;5.63;;;18.50;99.90;;;;;;4972564;28;20046;-86
2022/08/12 01:55:00;;;;;;;10.27;6.00;;;18.50;99.90;;;;;;4983606;28;20441;-86
2022/08/12 01:57:38;;;;;;;8.93;5.80;;;18.40;99.90;;;;;;4988871;28;20113;-86
2022/08/12 02:00:12;;;;;;;9.75;6.20;;;18.50;99.90;;;;;;4983713;28;20134;-85
2022/08/12 02:02:56;;;;;;;8.52;5.80;;;18.50;99.90;;;;;;4986781;28;20058;-85
2022/08/12 02:11:34;;;;;;;10.98;6.50;;;18.40;99.90;;;;;;4987637;28;20062;-86
2022/08/12 02:14:36;;;;;;;9.52;5.80;;;18.30;99.90;;;;;;4989629;28;20054;-86
2022/08/12 02:17:24;;;;;;;9.20;6.20;;;18.30;99.90;;;;;;4985697;28;20057;-86
2022/08/12 02:20:04;;;;;;;9.38;6.50;;;18.20;99.90;;;;;;4985451;28;20125;-87
2022/08/12 02:22:38;;;;;;;8.48;6.85;;;18.20;99.90;;;;;;4984465;28;20042;-87
2022/08/12 02:25:15;;;;;;;9.93;6.60;;;18.20;99.90;;;;;;4986988;28;20046;-87
2022/08/12 02:27:46;;;;;;;10.38;7.25;;;18.20;99.90;;;;;;4983588;28;20046;-87
2022/08/12 02:30:18;;;;;;;11.20;7.03;;;18.10;99.90;;;;;;4986688;28;20086;-86
2022/08/12 02:32:46;;;;;;;11.00;6.63;;;18.10;99.90;;;;;;4970010;28;20101;-86
2022/08/12 02:35:16;;;;;;;9.43;6.70;;;18.00;99.90;;;;;;4988127;28;20049;-87
2022/08/12 02:37:42;;;;;;;9.65;6.70;;;18.10;99.90;;;;;;4987733;28;20391;-86
2022/08/12 02:40:10;;;;;;;9.90;7.32;;;18.00;99.90;;;;;;4987895;28;20784;-86
2022/08/12 02:42:37;;;;;;;9.48;6.82;;;17.90;99.90;;;;;;4986864;28;20042;-87
2022/08/12 02:45:06;;;;;;;9.32;6.85;;;17.90;99.90;;;;;;4987046;28;20501;-86
2022/08/12 02:47:37;;;;;;;10.10;7.15;;;17.90;99.90;;;;;;4986966;28;20446;-87
2022/08/12 02:50:04;;;;;;;9.60;7.03;;;17.80;99.90;;;;;;4983029;28;20094;-89
2022/08/12 02:52:31;;;;;;;9.50;7.00;;;17.80;99.90;;;;;;4986858;28;20034;-87
2022/08/12 02:55:04;;;;;;;10.07;7.40;;;17.80;99.90;;;;;;4969942;28;20058;-87
2022/08/12 02:57:30;;;;;;;9.32;7.13;;;17.80;99.90;;;;;;4988125;28;20072;-87
2022/08/12 02:59:57;;;;;;;10.73;7.05;;;17.80;99.90;;;;;;4964873;28;20046;-87
2022/08/12 03:02:27;;;;;;;9.68;6.78;;;17.80;99.90;;;;;;4986942;28;20387;-87
2022/08/12 03:04:55;;;;;;;10.23;7.10;;;17.70;99.90;;;;;;4984758;28;20069;-86
2022/08/12 03:07:25;;;;;;;11.48;7.43;;;17.70;99.90;;;;;;4969876;28;20124;-86
2022/08/12 03:10:02;;;;;;;11.00;7.43;;;17.60;99.90;;;;;;4969263;28;20046;-86
2022/08/12 03:12:32;;;;;;;10.13;7.40;;;17.60;99.90;;;;;;4969892;28;20053;-87
2022/08/12 03:15:00;;;;;;;9.90;7.45;;;17.50;99.90;;;;;;4988718;28;20045;-87
2022/08/12 03:17:37;;;;;;;10.73;7.47;;;17.50;99.90;;;;;;4985999;28;20058;-87
2022/08/12 03:20:05;;;;;;;12.68;7.82;;;17.40;99.90;;;;;;4967823;28;20181;-87
2022/08/12 03:22:33;;;;;;;10.68;7.57;;;17.40;99.90;;;;;;4987997;28;20058;-87
2022/08/12 03:25:03;;;;;;;9.18;7.35;;;17.30;99.90;;;;;;4969276;28;20050;-87
2022/08/12 03:27:30;;;;;;;9.35;7.28;;;17.30;99.90;;;;;;4987042;28;20046;-87
2022/08/12 03:29:57;;;;;;;10.57;8.07;;;17.30;99.90;;;;;;4984370;28;20050;-87
2022/08/12 03:32:24;;;;;;;10.45;7.07;;;17.20;99.90;;;;;;4988172;28;20057;-87
2022/08/12 03:34:50;;;;;;;11.90;7.65;;;17.10;99.90;;;;;;4986794;28;20053;-86
2022/08/12 03:37:19;;;;;;;10.13;7.18;;;17.10;99.90;;;;;;4987413;28;20153;-86
2022/08/12 03:39:45;;;;;;;10.43;7.82;;;17.10;99.90;;;;;;4982710;28;20038;-86
2022/08/12 03:42:24;;;;;;;10.02;7.35;;;17.00;99.90;;;;;;4969603;28;20109;-86
2022/08/12 04:01:57;;;;;;;10.60;7.68;;;17.10;99.90;;;;;;4984057;28;20133;-87
2022/08/12 04:04:34;;;;;;;11.27;7.65;;;17.00;99.90;;;;;;4983628;28;20423;-86
2022/08/12 04:07:02;;;;;;;11.48;7.80;;;16.90;99.90;;;;;;4982508;28;20058;-86
2022/08/12 04:09:28;;;;;;;12.65;8.00;;;16.90;99.90;;;;;;4985081;28;20380;-86
2022/08/12 04:14:39;;;;;;;10.07;7.82;;;16.90;99.90;;;;;;4984891;28;20105;-86
2022/08/12 04:17:07;;;;;;;10.98;7.57;;;16.90;99.90;;;;;;4988717;28;20061;-87
2022/08/12 04:19:33;;;;;;;11.95;7.85;;;16.90;99.90;;;;;;4986644;28;20042;-86
2022/08/12 04:22:00;;;;;;;10.20;7.80;;;16.90;99.90;;;;;;4984711;28;20231;-87
2022/08/12 04:24:26;;;;;;;11.00;8.05;;;16.90;99.90;;;;;;4987440;28;20042;-86
2022/08/12 04:26:52;;;;;;;12.25;8.57;;;16.90;99.90;;;;;;4987853;28;20491;-86
2022/08/12 04:29:22;;;;;;;12.68;8.02;;;16.90;99.90;;;;;;4983004;28;20066;-87
2022/08/12 04:31:49;;;;;;;12.02;8.48;;;16.90;99.90;;;;;;4985201;28;20044;-91
2022/08/12 04:34:16;;;;;;;11.30;8.52;;;16.90;99.90;;;;;;4984031;28;20545;-90
2022/08/12 04:36:42;;;;;;;14.73;8.40;;;16.80;99.90;;;;;;4965672;28;20388;-90
2022/08/12 04:39:10;;;;;;;10.63;8.15;;;16.90;99.90;;;;;;4982959;28;20046;-91
2022/08/12 04:41:37;;;;;;;11.52;8.18;;;16.90;99.90;;;;;;4987330;28;20569;-92
2022/08/12 04:44:04;;;;;;;10.52;8.50;;;16.90;99.90;;;;;;4969885;28;20502;-90
2022/08/12 04:46:30;;;;;;;9.43;7.55;;;16.90;99.90;;;;;;4985599;28;20042;-90
2022/08/12 04:48:56;;;;;;;11.88;7.75;;;17.00;99.90;;;;;;4984926;28;20449;-91
2022/08/12 04:51:23;;;;;;;11.77;8.23;;;17.00;99.90;;;;;;4990568;28;20035;-90
2022/08/12 04:53:50;;;;;;;10.20;7.70;;;17.10;99.90;;;;;;4984396;28;20047;-90
2022/08/12 04:56:16;;;;;;;11.18;7.93;;;17.10;99.90;;;;;;4988447;28;20077;-91
2022/08/12 04:58:42;;;;;;;10.70;7.50;;;17.20;99.90;;;;;;4988855;28;20074;-90
2022/08/12 05:01:09;;;;;;;11.93;7.63;;;17.20;99.90;;;;;;4989758;28;20088;-87
2022/08/12 05:03:36;;;;;;;11.18;7.60;;;17.30;99.90;;;;;;4985211;28;20039;-88
2022/08/12 05:06:03;;;;;;;10.75;7.60;;;17.30;99.90;;;;;;4984745;28;20371;-87
2022/08/12 05:08:29;;;;;;;11.63;7.90;;;17.30;99.90;;;;;;4986917;28;20047;-87
2022/08/12 05:10:55;;;;;;;9.60;7.60;;;17.40;99.90;;;;;;4990305;28;20046;-87
2022/08/12 05:13:37;;;;;;;12.50;7.55;;;17.40;99.90;;;;;;4990824;28;20042;-88
2022/08/12 05:16:04;;;;;;;11.10;7.60;;;17.50;99.90;;;;;;4972367;28;20061;-87
2022/08/12 05:18:31;;;;;;;11.82;8.18;;;17.60;99.90;;;;;;4986848;28;20053;-85
2022/08/12 05:20:58;;;;;;;12.55;7.90;;;17.70;99.90;;;;;;4971385;28;20054;-87
2022/08/12 05:23:23;;;;;;;12.10;7.80;;;17.70;99.90;;;;;;4993740;28;20038;-87
2022/08/12 05:25:51;;;;;;;10.73;7.75;;;17.80;99.90;;;;;;4985068;28;20101;-87
2022/08/12 05:28:17;;;;;;;10.93;7.97;;;17.90;99.90;;;;;;4987558;28;20438;-83
2022/08/12 05:30:44;;;;;;;15.30;8.15;;;18.00;99.90;;;;;;4991477;28;20121;-84
2022/08/12 05:33:11;;;;;;;10.50;7.70;;;18.10;99.90;;;;;;4988766;28;20046;-86
2022/08/12 05:35:40;;;;;;;9.45;7.05;;;18.20;99.90;;;;;;4979768;28;20064;-86
2022/08/12 05:40:55;;;;;;;11.88;7.32;;;18.30;99.90;;;;;;4985154;28;20046;-86
2022/08/12 05:43:21;;;;;;;9.45;7.25;;;18.40;99.90;;;;;;4991520;28;20553;-85
2022/08/12 05:45:47;;;;;;;11.15;7.70;;;18.40;99.90;;;;;;4989785;28;20050;-86
2022/08/12 05:48:13;;;;;;;10.27;6.80;;;18.50;99.90;;;;;;4983053;28;20511;-86
2022/08/12 05:50:39;;;;;;;10.23;6.72;;;18.60;99.90;;;;;;4989027;28;20077;-86
2022/08/12 05:53:05;;;;;;;9.13;6.85;;;18.60;99.90;;;;;;4983426;28;20379;-85
2022/08/12 05:55:32;;;;;;;8.93;6.45;;;18.70;99.90;;;;;;4986077;28;20446;-88
2022/08/12 05:57:58;;;;;;;9.35;6.38;;;18.80;99.90;;;;;;4982766;28;20132;-85
2022/08/12 06:00:25;;;;;;;11.15;6.53;;;18.90;99.90;;;;;;4970165;28;20388;-85
2022/08/12 06:03:01;;;;;;;9.93;6.43;;;19.00;99.90;;;;;;4982950;28;20042;-87
2022/08/12 06:05:27;;;;;;;9.25;6.22;;;19.10;99.90;;;;;;4966078;28;20046;-87
2022/08/12 06:07:54;;;;;;;11.35;6.40;;;19.20;99.90;;;;;;4968742;28;20085;-87
2022/08/12 06:10:20;;;;;;;9.75;6.15;;;19.20;99.90;;;;;;4967963;28;20061;-87
2022/08/12 06:12:48;;;;;;;11.32;5.85;;;19.40;99.90;;;;;;4982335;28;20050;-87
2022/08/12 06:15:15;;;;;;;10.20;6.30;;;19.50;99.90;;;;;;4986630;28;20120;-87
2022/08/12 06:17:41;;;;;;;9.02;5.70;;;19.60;99.90;;;;;;4983006;28;20439;-88
2022/08/12 06:20:12;;;;;;;9.15;6.03;;;19.70;99.90;;;;;;4985357;28;20089;-87
2022/08/12 06:22:38;;;;;;;11.32;6.22;;;19.80;99.90;;;;;;4984550;28;20121;-89
2022/08/12 06:25:05;;;;;;;9.38;5.60;;;19.80;99.90;;;;;;4979876;28;20046;-87
2022/08/12 06:27:32;;;;;;;9.32;5.50;;;19.90;99.90;;;;;;4983533;28;20356;-88
2022/08/12 06:29:57;;;;;;;9.48;6.13;;;20.00;99.90;;;;;;4988281;28;20051;-86
2022/08/12 06:32:23;;;;;;;9.07;5.70;;;20.00;99.90;;;;;;4990551;28;20581;-86
2022/08/12 06:34:49;;;;;;;8.82;5.50;;;20.10;99.90;;;;;;4991831;28;20124;-87
2022/08/12 06:37:17;;;;;;;8.65;5.93;;;20.20;99.90;;;;;;4990524;28;20136;-87
2022/08/12 06:39:43;;;;;;;9.00;5.68;;;20.30;99.90;;;;;;4968660;28;20138;-88
2022/08/12 06:44:53;;;;;;;9.70;5.60;;;20.40;99.90;;;;;;4982350;28;20054;-90
2022/08/12 06:47:20;;;;;;;9.07;5.40;;;20.60;99.90;;;;;;4989771;28;20042;-87
2022/08/12 06:49:48;;;;;;;10.82;5.68;;;20.60;99.90;;;;;;4991188;28;20041;-89
2022/08/12 06:52:14;;;;;;;8.90;5.30;;;20.70;99.90;;;;;;4966357;28;20038;-85
2022/08/12 06:54:43;;;;;;;9.15;5.30;;;20.80;99.90;;;;;;4986172;28;20045;-89
2022/08/12 06:57:08;;;;;;;9.32;5.72;;;20.90;99.90;;;;;;4989689;28;20452;-89
2022/08/12 06:59:34;;;;;;;10.13;5.57;;;21.00;99.90;;;;;;4990440;28;20046;-87
2022/08/12 07:02:00;;;;;;;9.38;5.90;;;21.10;99.90;;;;;;4990356;28;20042;-88
2022/08/12 07:04:26;;;;;;;8.20;5.22;;;21.10;99.90;;;;;;4980169;28;20045;-87
2022/08/12 07:06:54;;;;;;;10.35;5.15;;;21.20;99.90;;;;;;4974893;28;20049;-90
2022/08/12 07:09:20;;;;;;;11.57;5.78;;;21.30;99.90;;;;;;4992191;28;20038;-87
2022/08/12 07:11:45;;;;;;;9.02;5.45;;;21.40;99.90;;;;;;4990998;28;20057;-88
2022/08/12 07:14:11;;;;;;;10.30;5.40;;;21.50;99.90;;;;;;4991538;28;20400;-89
2022/08/12 07:16:52;;;;;;;11.63;4.57;;;21.60;99.90;;;;;;4992728;28;20137;-89
2022/08/12 07:19:19;;;;;;;8.98;4.90;;;21.70;99.90;;;;;;4998958;28;20092;-89
2022/08/12 07:21:46;;;;;;;9.45;4.95;;;21.80;99.90;;;;;;4991765;28;20051;-89
2022/08/12 07:24:11;;;;;;;11.20;4.60;;;21.90;99.90;;;;;;4993216;28;20046;-88
2022/08/12 07:26:40;;;;;;;7.68;4.70;;;22.00;99.90;;;;;;4989792;28;20400;-88
2022/08/12 07:29:06;;;;;;;10.05;5.05;;;22.10;99.90;;;;;;4973519;28;20058;-89
2022/08/12 07:31:32;;;;;;;12.90;5.03;;;22.20;99.90;;;;;;4991167;28;20046;-90
2022/08/12 07:33:58;;;;;;;8.77;4.93;;;22.30;99.90;;;;;;4968019;28;20471;-87
2022/08/12 07:36:24;;;;;;;8.15;4.43;;;22.40;99.90;;;;;;5004958;28;20042;-88
2022/08/12 07:38:51;;;;;;;9.60;4.80;;;22.50;99.90;;;;;;4998535;28;20046;-89
2022/08/12 07:41:24;;;;;;;9.20;5.32;;;22.70;99.90;;;;;;4984994;28;20085;-86
2022/08/12 07:43:52;;;;;;;9.20;4.95;;;22.60;99.90;;;;;;4987983;28;20053;-89
2022/08/12 07:46:22;;;;;;;8.48;5.10;;;22.70;99.90;;;;;;4989149;28;20053;-90
2022/08/12 07:48:57;;;;;;;8.47;4.77;;;22.70;99.90;;;;;;4970335;28;20042;-86
2022/08/12 07:51:24;;;;;;;10.63;4.60;;;22.80;99.90;;;;;;4990252;28;20038;-86
2022/08/12 07:53:50;;;;;;;8.10;4.57;;;22.90;99.90;;;;;;4978370;28;20046;-88
2022/08/12 07:56:17;;;;;;;8.75;4.47;;;23.00;99.90;;;;;;4988847;28;20500;-88
2022/08/12 07:58:43;;;;;;;9.43;4.40;;;23.10;99.90;;;;;;4980034;28;20050;-87
2022/08/12 08:01:14;;;;;;;7.78;4.43;;;23.10;99.90;;;;;;4971794;28;20443;-88
2022/08/12 08:04:54;;;;;;;7.85;4.18;;;23.20;99.90;;;;;;4988916;28;20045;-86
2022/08/12 08:06:27;;;;;;;9.43;4.20;;;23.30;99.90;;;;;;4989265;28;20057;-91
2022/08/12 08:08:55;;;;;;;9.88;4.35;;;23.40;99.90;;;;;;4998478;28;20364;-92
2022/08/12 08:14:07;;;;;;;11.52;4.90;;;23.50;99.90;;;;;;4998345;28;20050;-88
2022/08/12 08:16:35;;;;;;;8.05;4.00;;;23.70;99.90;;;;;;4988975;28;20487;-88
2022/08/12 08:19:01;;;;;;;7.45;3.97;;;23.80;99.90;;;;;;5002300;28;20372;-89
2022/08/12 08:21:34;;;;;;;7.57;4.15;;;23.90;99.90;;;;;;4997511;28;20171;-90
2022/08/12 08:24:15;;;;;;;8.40;4.25;;;24.00;99.90;;;;;;4993522;28;20046;-88
2022/08/12 08:26:49;;;;;;;7.60;3.65;;;24.10;99.90;;;;;;4992664;28;20122;-88
2022/08/12 08:29:16;;;;;;;6.60;3.67;;;24.10;99.90;;;;;;4988785;28;20054;-87
2022/08/12 08:31:44;;;;;;;8.80;4.20;;;24.20;99.90;;;;;;4988884;28;20061;-88
2022/08/12 08:34:14;;;;;;;6.30;3.70;;;24.40;99.90;;;;;;4989918;28;20046;-91
2022/08/12 08:36:40;;;;;;;8.15;3.90;;;24.40;99.90;;;;;;4995145;28;20415;-86
2022/08/12 08:39:07;;;;;;;7.35;3.75;;;24.50;99.90;;;;;;4976872;28;20053;-91
2022/08/12 08:44:17;;;;;;;8.93;4.10;;;24.70;99.90;;;;;;4981909;28;20047;-92
2022/08/12 08:46:43;;;;;;;6.50;3.95;;;24.80;99.90;;;;;;4993413;28;20053;-93
2022/08/12 08:49:09;;;;;;;6.60;3.67;;;24.90;99.90;;;;;;4994866;28;20096;-87
2022/08/12 08:51:37;;;;;;;9.35;3.90;;;24.90;99.90;;;;;;4995100;28;20050;-89
2022/08/12 08:54:05;;;;;;;9.70;3.70;;;25.00;99.90;;;;;;4981769;28;20046;-87
2022/08/12 08:56:32;;;;;;;8.52;3.90;;;25.10;99.90;;;;;;4991940;28;20153;-87
2022/08/12 08:58:58;;;;;;;9.32;3.88;;;25.20;99.90;;;;;;4992514;28;20042;-87
2022/08/12 09:01:24;;;;;;;7.10;3.85;;;25.30;99.90;;;;;;4992653;28;20042;-88
2022/08/12 09:03:50;;;;;;;10.32;3.72;;;25.30;99.90;;;;;;4992693;28;20442;-86
2022/08/12 09:06:16;;;;;;;9.43;3.78;;;25.40;99.90;;;;;;4998424;28;20042;-89
2022/08/12 09:08:42;;;;;;;9.07;3.75;;;25.60;99.90;;;;;;4974077;28;20062;-88
2022/08/12 09:13:52;;;;;;;5.88;3.50;;;25.60;99.90;;;;;;4991859;28;20447;-87
2022/08/12 09:16:19;;;;;;;8.23;3.58;;;25.70;99.90;;;;;;4991732;28;20051;-86
2022/08/12 09:18:45;;;;;;;6.85;3.72;;;25.80;99.90;;;;;;4993941;28;20399;-90
2022/08/12 09:21:12;;;;;;;7.75;3.80;;;25.80;99.90;;;;;;4970552;28;20289;-90
2022/08/12 09:23:37;;;;;;;5.95;3.40;;;25.80;99.90;;;;;;4991915;28;20053;-85
2022/08/12 09:26:03;;;;;;;6.55;3.40;;;26.00;98.40;;;;;;4973765;28;20042;-86
2022/08/12 09:28:29;;;;;;;6.78;3.60;;;26.00;98.60;;;;;;4994551;28;20058;-85
2022/08/12 09:30:58;;;;;;;7.45;3.65;;;26.10;97.50;;;;;;4990783;28;20092;-88
2022/08/12 09:33:27;;;;;;;7.40;3.65;;;26.20;97.30;;;;;;4993451;28;20071;-86
2022/08/12 09:35:53;;;;;;;10.15;3.78;;;26.20;96.70;;;;;;4993269;28;20104;-89
2022/08/12 09:38:19;;;;;;;7.85;3.75;;;26.30;97.30;;;;;;4999748;28;20047;-88
2022/08/12 09:40:46;;;;;;;8.75;4.00;;;26.40;97.50;;;;;;5000013;28;20483;-88
2022/08/12 09:45:59;;;;;;;7.25;3.40;;;26.40;96.70;;;;;;4993501;28;20559;-88
2022/08/12 09:48:25;;;;;;;8.85;3.55;;;26.50;97.30;;;;;;5004945;28;20070;-88
2022/08/12 09:50:51;;;;;;;8.80;3.60;;;26.60;96.00;;;;;;4992066;28;20451;-91
2022/08/12 09:53:23;;;;;;;7.03;3.90;;;26.70;94.50;;;;;;4992670;28;20057;-88
2022/08/12 09:55:53;;;;;;;6.72;3.60;;;26.80;93.70;;;;;;4990167;28;20120;-89
2022/08/12 09:58:27;;;;;;;8.57;3.42;;;26.90;92.40;;;;;;4990366;28;20046;-91
2022/08/12 10:00:56;;;;;;;8.68;3.60;;;27.00;89.70;;;;;;4990157;28;20096;-91
2022/08/12 10:03:26;;;;;;;7.03;3.80;;;27.10;90.60;;;;;;4984767;28;20105;-91
2022/08/12 10:05:52;;;;;;;6.00;3.35;;;27.10;91.00;;;;;;4991428;28;20407;-93
2022/08/12 10:08:18;;;;;;;9.52;3.67;;;27.10;88.40;;;;;;4991190;28;20045;-88
2022/08/12 10:13:41;;;;;;;9.73;3.65;;;27.30;83.20;;;;;;4992465;28;20047;-87
2022/08/12 10:16:21;;;;;;;6.80;3.40;;;27.40;82.70;;;;;;4988946;28;20084;-90
2022/08/12 10:18:52;;;;;;;9.25;3.47;;;27.50;83.80;;;;;;4973638;28;20046;-88
2022/08/12 10:21:22;;;;;;;;;;;27.60;82.30;;;;;;4975685;28;20077;-92
2022/08/12 10:23:49;;;;;;;6.07;3.47;;;27.60;78.10;;;;;;5003981;28;19921;-89
2022/08/12 10:31:50;;;;;;;9.75;3.70;;;27.80;76.20;;;;;;4987085;28;20082;-90
2022/08/12 10:34:17;;;;;;;7.85;3.13;;;27.80;76.20;;;;;;4984007;28;20502;-91
2022/08/12 10:36:43;;;;;;;7.00;3.78;;;27.90;74.80;;;;;;4974342;28;20049;-94
2022/08/12 10:39:12;;;;;;;7.13;3.28;;;27.90;73.50;;;;;;4988650;28;20700;-91
2022/08/12 10:44:23;;;;;;;7.15;3.30;;;28.00;73.30;;;;;;4983877;28;20046;-90
2022/08/12 10:46:51;;;;;;;8.00;3.55;;;28.10;71.10;;;;;;5002421;28;20045;-91
2022/08/12 10:49:18;;;;;;;7.45;3.20;;;28.10;71.00;;;;;;5003252;28;20046;-93
2022/08/12 10:51:44;;;;;;;7.18;3.22;;;28.10;71.30;;;;;;4988992;28;20077;-86
2022/08/12 10:54:12;;;;;;;6.60;3.20;;;28.20;69.60;;;;;;4991499;28;20042;-90
2022/08/12 10:56:39;;;;;;;7.30;3.17;;;28.10;69.40;;;;;;4991860;28;20050;-91
2022/08/12 10:59:05;;;;;;;6.13;3.10;;;28.20;70.90;;;;;;4992632;28;20047;-92
2022/08/12 11:01:32;;;;;;;5.80;3.10;;;28.10;69.40;;;;;;5002999;28;20053;-92
2022/08/12 11:04:00;;;;;;;6.88;3.15;;;28.20;68.30;;;;;;5002039;28;20081;-88
2022/08/12 11:06:26;;;;;;;8.98;3.30;;;28.20;68.40;;;;;;4997884;28;20411;-91
2022/08/12 11:08:55;;;;;;;7.03;2.80;;;28.20;67.90;;;;;;5001877;28;20136;-89
2022/08/12 11:11:21;;;;;;;5.88;2.67;;;28.30;69.00;;;;;;4995321;28;20058;-88
2022/08/12 11:13:47;;;;;;;6.78;2.90;;;28.30;66.50;;;;;;5000647;28;20473;-91
2022/08/12 11:16:16;;;;;;;6.20;2.85;;;28.30;63.90;;;;;;5008669;28;20046;-91
2022/08/12 11:18:42;;;;;;;6.38;2.80;;;28.30;65.90;;;;;;4994082;28;20056;-87
2022/08/12 11:21:08;;;;;;;6.35;2.63;;;28.30;64.30;;;;;;5004827;28;20038;-90
2022/08/12 11:23:33;;;;;;;7.18;2.80;;;28.40;62.50;;;;;;5008802;28;20052;-91
2022/08/12 11:25:59;;;;;;;7.18;3.00;;;28.40;63.40;;;;;;5000311;28;20495;-89
2022/08/12 11:28:25;;;;;;;6.38;2.90;;;28.30;63.40;;;;;;4988890;28;20392;-93
2022/08/12 11:30:51;;;;;;;6.15;2.72;;;28.40;64.40;;;;;;4998438;28;20092;-91
2022/08/12 11:33:16;;;;;;;7.10;2.92;;;28.30;64.30;;;;;;5009233;28;20444;-91
2022/08/12 11:35:42;;;;;;;6.72;3.00;;;28.30;63.20;;;;;;4998011;28;20042;-89
2022/08/12 11:38:09;;;;;;;7.10;3.08;;;28.40;63.10;;;;;;4994330;28;20410;-89
2022/08/12 11:40:34;;;;;;;7.78;2.88;;;28.40;63.10;;;;;;4989574;28;20141;-92
2022/08/12 11:43:00;;;;;;;9.55;3.10;;;28.40;62.60;;;;;;4988556;28;20539;-93
2022/08/12 11:45:27;;;;;;;7.30;2.97;;;28.40;62.20;;;;;;4991494;28;20106;-91
2022/08/12 11:47:58;;;;;;;7.72;3.22;;;28.50;62.40;;;;;;5000405;28;20402;-94
2022/08/12 11:50:24;;;;;;;7.18;3.28;;;28.50;62.00;;;;;;4972446;28;20376;-90
2022/08/12 11:52:50;;;;;;;7.38;3.08;;;28.60;63.00;;;;;;4988532;28;20073;-88
2022/08/12 11:55:17;;;;;;;6.60;3.13;;;28.80;61.50;;;;;;4991138;28;20645;-93
2022/08/12 11:57:53;;;;;;;6.28;3.20;;;28.70;60.60;;;;;;4988759;28;20054;-94
2022/08/12 12:00:21;;;;;;;7.07;3.15;;;28.80;61.10;;;;;;4991166;28;20050;-89
2022/08/12 12:02:46;;;;;;;7.78;3.30;;;28.80;60.80;;;;;;4989846;28;20096;-88
2022/08/12 12:05:15;;;;;;;8.13;3.13;;;28.80;60.60;;;;;;4988765;28;20050;-90
2022/08/12 12:07:42;;;;;;;6.80;2.88;;;28.80;59.50;;;;;;4971619;28;20034;-89
2022/08/12 12:10:09;;;;;;;7.25;3.00;;;28.70;60.80;;;;;;4988671;28;20042;-92
2022/08/12 12:12:35;;;;;;;9.35;3.10;;;28.90;61.20;;;;;;4974432;28;20050;-87
2022/08/12 12:15:01;;;;;;;9.40;3.30;;;28.90;59.50;;;;;;4963532;28;20042;-89
2022/08/12 12:17:26;;;;;;;7.53;3.20;;;28.90;59.10;;;;;;4972125;28;20462;-88
2022/08/12 12:19:53;;;;;;;7.68;3.60;;;29.00;59.10;;;;;;4987500;28;20041;-87
2022/08/12 12:22:19;;;;;;;5.85;3.13;;;29.10;58.10;;;;;;4982643;28;20101;-88
2022/08/12 12:24:46;;;;;;;8.50;3.42;;;29.10;58.80;;;;;;5016343;28;20046;-87
2022/08/12 12:27:12;;;;;;;6.82;3.40;;;29.10;59.30;;;;;;4963688;28;20035;-90
2022/08/12 12:29:38;;;;;;;6.90;3.33;;;29.10;58.70;;;;;;4984415;28;20054;-93
2022/08/12 12:32:03;;;;;;;6.28;3.00;;;29.20;58.60;;;;;;4989322;28;20053;-88
2022/08/12 12:34:29;;;;;;;7.63;3.53;;;29.10;58.00;;;;;;4994773;28;20204;-90
2022/08/12 12:36:55;;;;;;;10.07;3.50;;;29.10;58.10;;;;;;4988318;28;20039;-87
2022/08/12 12:39:20;;;;;;;7.35;2.97;;;29.20;57.70;;;;;;4989021;28;20056;-89
2022/08/12 12:41:46;;;;;;;8.57;3.50;;;29.20;57.60;;;;;;5007749;28;20042;-87
2022/08/12 12:44:12;;;;;;;5.95;3.30;;;29.20;57.50;;;;;;5005675;28;20034;-89
2022/08/12 12:46:37;;;;;;;6.43;3.20;;;29.20;57.50;;;;;;5002158;28;20092;-86
2022/08/12 12:49:03;;;;;;;7.85;3.78;;;29.20;56.70;;;;;;4997257;28;20065;-87
2022/08/12 12:51:29;;;;;;;9.52;3.42;;;29.20;58.00;;;;;;4968977;28;20039;-88
2022/08/12 12:53:55;;;;;;;8.35;3.40;;;29.30;58.80;;;;;;4995901;28;20121;-88
2022/08/12 12:56:22;;;;;;;7.85;3.10;;;29.30;59.40;;;;;;4984904;28;20081;-87
2022/08/12 12:58:50;;;;;;;6.03;3.22;;;29.30;58.40;;;;;;4991032;28;20507;-88
2022/08/12 13:01:26;;;;;;;7.70;3.28;;;29.30;59.10;;;;;;5002946;28;20272;-88
2022/08/12 13:03:55;;;;;;;7.95;3.10;;;29.30;59.00;;;;;;4993458;28;20034;-89
2022/08/12 13:06:28;;;;;;;8.77;3.30;;;29.30;57.70;;;;;;4996894;28;20080;-90
2022/08/12 13:08:55;;;;;;;7.50;3.35;;;29.30;57.70;;;;;;4988356;28;20423;-88
2022/08/12 13:11:21;;;;;;;8.23;3.40;;;29.30;57.50;;;;;;4971128;28;20074;-87
2022/08/12 13:13:48;;;;;;;7.80;3.20;;;29.40;56.00;;;;;;4968725;28;20042;-91
2022/08/12 13:16:19;;;;;;;6.93;2.80;;;29.40;56.60;;;;;;4970353;28;20051;-93
2022/08/12 13:18:46;;;;;;;;;;;29.50;56.60;;;;;;4957891;28;20038;-89
2022/08/12 13:21:16;;;;;;;4.97;2.55;;;29.40;55.50;;;;;;4968540;28;19965;-91
2022/08/12 13:23:44;;;;;;;6.38;3.10;;;29.40;55.30;;;;;;4963382;28;20043;-88
2022/08/12 13:26:14;;;;;;;6.57;3.10;;;29.50;55.10;;;;;;4981945;28;20043;-89
2022/08/12 13:28:44;;;;;;;7.23;3.20;;;29.40;55.20;;;;;;4995398;28;20050;-90
2022/08/12 13:31:11;;;;;;;8.23;3.40;;;29.50;55.20;;;;;;4971454;28;20078;-90
2022/08/12 13:33:36;;;;;;;6.60;3.10;;;29.40;55.70;;;;;;4956324;28;20054;-89
2022/08/12 13:36:03;;;;;;;7.65;3.17;;;29.40;56.60;;;;;;4958279;28;20077;-90
2022/08/12 13:38:47;;;;;;;5.53;3.25;;;29.50;57.00;;;;;;4976432;28;20122;-88
2022/08/12 13:41:31;;;;;;;9.98;3.35;;;29.40;56.70;;;;;;4971186;28;20046;-89
2022/08/12 13:44:08;;;;;;;6.45;3.15;;;29.50;56.00;;;;;;4954511;28;20046;-89
2022/08/12 13:46:39;;;;;;;4.60;2.90;;;29.50;56.30;;;;;;4977913;28;20055;-90
2022/08/12 13:49:10;;;;;;;7.15;3.08;;;29.60;55.70;;;;;;4985125;28;20050;-89
2022/08/12 13:51:36;;;;;;;7.57;3.53;;;29.50;54.80;;;;;;4973777;28;20043;-89
2022/08/12 13:54:05;;;;;;;6.70;3.70;;;29.50;54.70;;;;;;4977328;28;20194;-89
2022/08/12 13:56:33;;;;;;;8.40;3.38;;;29.50;54.60;;;;;;4982232;28;20197;-87
2022/08/12 13:59:00;;;;;;;7.47;3.08;;;29.50;54.70;;;;;;4987636;28;20407;-87
2022/08/12 14:01:26;;;;;;;7.95;3.45;;;29.60;55.30;;;;;;4987151;28;20046;-85
2022/08/12 14:03:52;;;;;;;6.05;3.47;;;29.70;55.00;;;;;;4982471;28;20050;-84
2022/08/12 14:06:19;;;;;;;6.07;2.97;;;29.80;54.20;;;;;;4992986;28;20050;-86
2022/08/12 14:08:47;;;;;;;6.88;3.50;;;29.70;53.80;;;;;;4983831;28;20406;-86
2022/08/12 14:11:13;;;;;;;6.65;3.50;;;29.70;54.00;;;;;;4988606;28;20081;-86
2022/08/12 14:13:40;;;;;;;6.95;3.53;;;29.60;53.60;;;;;;4987937;28;20047;-85
2022/08/12 14:16:09;;;;;;;7.13;3.72;;;29.50;54.00;;;;;;4995852;28;21325;-85
2022/08/12 14:18:38;;;;;;;7.05;3.60;;;29.60;54.50;;;;;;4990172;28;20038;-84
2022/08/12 14:21:11;;;;;;;7.35;3.60;;;29.60;54.00;;;;;;4986812;28;20054;-84
2022/08/12 14:23:40;;;;;;;9.07;3.60;;;29.60;54.00;;;;;;4995620;28;20376;-84
2022/08/12 14:26:07;;;;;;;8.95;3.80;;;29.70;53.20;;;;;;4990919;28;20302;-85
2022/08/12 14:28:35;;;;;;;8.95;3.90;;;29.70;53.20;;;;;;4990838;28;20058;-85
2022/08/12 14:31:03;;;;;;;7.93;3.63;;;29.80;53.60;;;;;;4990721;28;20407;-86
2022/08/12 14:33:34;;;;;;;6.82;3.50;;;29.70;54.00;;;;;;4991021;28;20038;-85
2022/08/12 14:36:02;;;;;;;6.05;3.40;;;29.70;53.60;;;;;;4988396;28;20046;-88